sensor_id;sensor_type;location;lat;lon;timestamp;P1;durP1;ratioP1;P2;durP2;ratioP2
21833;SDS011;11079;51.092;3.458;2023-04-03T00:00:46;25.27;;;16.43;;
21833;SDS011;11079;51.092;3.458;2023-04-03T00:03:13;24.03;;;15.47;;
21833;SDS011;11079;51.092;3.458;2023-04-03T00:05:38;24.03;;;16.27;;
21833;SDS011;11079;51.092;3.458;2023-04-03T00:08:04;24.43;;;15.37;;
21833;SDS011;11079;51.092;3.458;2023-04-03T00:10:32;28.37;;;16.37;;
21833;SDS011;11079;51.092;3.458;2023-04-03T00:12:59;27.50;;;15.80;;
21833;SDS011;11079;51.092;3.458;2023-04-03T00:15:31;28.00;;;15.80;;
21833;SDS011;11079;51.092;3.458;2023-04-03T00:18:01;28.53;;;15.70;;
21833;SDS011;11079;51.092;3.458;2023-04-03T00:20:27;26.67;;;15.47;;
21833;SDS011;11079;51.092;3.458;2023-04-03T00:22:54;27.00;;;16.83;;
21833;SDS011;11079;51.092;3.458;2023-04-03T00:25:20;30.67;;;17.50;;
21833;SDS011;11079;51.092;3.458;2023-04-03T00:27:45;30.27;;;17.53;;
21833;SDS011;11079;51.092;3.458;2023-04-03T00:30:13;26.47;;;16.43;;
21833;SDS011;11079;51.092;3.458;2023-04-03T00:32:40;24.97;;;15.77;;
21833;SDS011;11079;51.092;3.458;2023-04-03T00:35:06;26.93;;;16.80;;
21833;SDS011;11079;51.092;3.458;2023-04-03T00:37:33;23.07;;;15.47;;
21833;SDS011;11079;51.092;3.458;2023-04-03T00:40:00;23.33;;;15.70;;
21833;SDS011;11079;51.092;3.458;2023-04-03T00:42:29;21.97;;;15.00;;
21833;SDS011;11079;51.092;3.458;2023-04-03T00:47:22;23.30;;;14.83;;
21833;SDS011;11079;51.092;3.458;2023-04-03T00:49:50;21.50;;;14.80;;
21833;SDS011;11079;51.092;3.458;2023-04-03T00:52:25;23.37;;;14.10;;
21833;SDS011;11079;51.092;3.458;2023-04-03T00:54:56;22.17;;;14.40;;
21833;SDS011;11079;51.092;3.458;2023-04-03T00:57:32;23.83;;;13.50;;
21833;SDS011;11079;51.092;3.458;2023-04-03T01:00:03;21.37;;;13.67;;
21833;SDS011;11079;51.092;3.458;2023-04-03T01:02:34;19.33;;;13.43;;
21833;SDS011;11079;51.092;3.458;2023-04-03T01:05:01;19.30;;;14.07;;
21833;SDS011;11079;51.092;3.458;2023-04-03T01:07:34;22.03;;;14.00;;
21833;SDS011;11079;51.092;3.458;2023-04-03T01:10:08;22.10;;;13.40;;
21833;SDS011;11079;51.092;3.458;2023-04-03T01:12:37;24.03;;;14.00;;
21833;SDS011;11079;51.092;3.458;2023-04-03T01:15:06;21.30;;;14.17;;
21833;SDS011;11079;51.092;3.458;2023-04-03T01:23:24;19.93;;;12.63;;
21833;SDS011;11079;51.092;3.458;2023-04-03T01:26:05;19.63;;;12.80;;
21833;SDS011;11079;51.092;3.458;2023-04-03T01:28:32;16.87;;;12.67;;
21833;SDS011;11079;51.092;3.458;2023-04-03T01:34:05;20.97;;;13.43;;
21833;SDS011;11079;51.092;3.458;2023-04-03T01:36:33;17.57;;;13.20;;
21833;SDS011;11079;51.092;3.458;2023-04-03T01:38:59;20.10;;;13.13;;
21833;SDS011;11079;51.092;3.458;2023-04-03T01:41:25;19.67;;;12.73;;
21833;SDS011;11079;51.092;3.458;2023-04-03T01:43:53;21.43;;;14.07;;
21833;SDS011;11079;51.092;3.458;2023-04-03T01:46:21;23.07;;;15.57;;
21833;SDS011;11079;51.092;3.458;2023-04-03T01:48:47;23.60;;;12.97;;
21833;SDS011;11079;51.092;3.458;2023-04-03T01:51:13;21.93;;;13.63;;
21833;SDS011;11079;51.092;3.458;2023-04-03T01:53:38;22.73;;;13.97;;
21833;SDS011;11079;51.092;3.458;2023-04-03T01:56:06;22.60;;;13.53;;
21833;SDS011;11079;51.092;3.458;2023-04-03T01:58:38;18.47;;;12.07;;
21833;SDS011;11079;51.092;3.458;2023-04-03T02:01:04;23.53;;;13.97;;
21833;SDS011;11079;51.092;3.458;2023-04-03T02:03:38;23.13;;;12.37;;
21833;SDS011;11079;51.092;3.458;2023-04-03T02:06:15;22.63;;;13.30;;
21833;SDS011;11079;51.092;3.458;2023-04-03T02:08:48;17.47;;;12.40;;
21833;SDS011;11079;51.092;3.458;2023-04-03T02:11:14;15.97;;;10.93;;
21833;SDS011;11079;51.092;3.458;2023-04-03T02:16:53;17.13;;;11.33;;
21833;SDS011;11079;51.092;3.458;2023-04-03T02:19:33;20.20;;;12.60;;
21833;SDS011;11079;51.092;3.458;2023-04-03T02:22:04;18.87;;;11.90;;
21833;SDS011;11079;51.092;3.458;2023-04-03T02:24:30;17.90;;;11.30;;
21833;SDS011;11079;51.092;3.458;2023-04-03T02:26:57;17.67;;;11.53;;
21833;SDS011;11079;51.092;3.458;2023-04-03T02:29:28;16.37;;;11.63;;
21833;SDS011;11079;51.092;3.458;2023-04-03T02:31:54;17.00;;;11.57;;
21833;SDS011;11079;51.092;3.458;2023-04-03T02:34:22;18.20;;;11.47;;
21833;SDS011;11079;51.092;3.458;2023-04-03T02:36:48;18.63;;;11.87;;
21833;SDS011;11079;51.092;3.458;2023-04-03T02:39:20;18.90;;;12.53;;
21833;SDS011;11079;51.092;3.458;2023-04-03T02:41:49;18.83;;;12.23;;
21833;SDS011;11079;51.092;3.458;2023-04-03T02:44:41;18.93;;;11.07;;
21833;SDS011;11079;51.092;3.458;2023-04-03T02:47:19;20.00;;;12.10;;
21833;SDS011;11079;51.092;3.458;2023-04-03T02:49:48;20.33;;;12.30;;
21833;SDS011;11079;51.092;3.458;2023-04-03T02:52:17;18.43;;;11.20;;
21833;SDS011;11079;51.092;3.458;2023-04-03T02:54:45;14.77;;;11.03;;
21833;SDS011;11079;51.092;3.458;2023-04-03T02:57:11;18.23;;;11.27;;
21833;SDS011;11079;51.092;3.458;2023-04-03T02:59:36;17.87;;;11.77;;
21833;SDS011;11079;51.092;3.458;2023-04-03T03:02:09;17.30;;;11.37;;
21833;SDS011;11079;51.092;3.458;2023-04-03T03:04:38;15.30;;;10.97;;
21833;SDS011;11079;51.092;3.458;2023-04-03T03:07:30;18.57;;;11.63;;
21833;SDS011;11079;51.092;3.458;2023-04-03T03:09:56;17.00;;;10.53;;
21833;SDS011;11079;51.092;3.458;2023-04-03T03:12:23;18.00;;;11.77;;
21833;SDS011;11079;51.092;3.458;2023-04-03T03:14:50;18.33;;;11.83;;
21833;SDS011;11079;51.092;3.458;2023-04-03T03:17:19;16.27;;;11.57;;
21833;SDS011;11079;51.092;3.458;2023-04-03T03:19:48;18.20;;;11.50;;
21833;SDS011;11079;51.092;3.458;2023-04-03T03:22:18;21.90;;;11.63;;
21833;SDS011;11079;51.092;3.458;2023-04-03T03:24:45;18.37;;;11.40;;
21833;SDS011;11079;51.092;3.458;2023-04-03T03:27:14;20.13;;;12.27;;
21833;SDS011;11079;51.092;3.458;2023-04-03T03:29:41;19.03;;;11.57;;
21833;SDS011;11079;51.092;3.458;2023-04-03T03:32:07;16.63;;;10.83;;
21833;SDS011;11079;51.092;3.458;2023-04-03T03:34:33;19.63;;;12.13;;
21833;SDS011;11079;51.092;3.458;2023-04-03T03:36:58;16.17;;;11.10;;
21833;SDS011;11079;51.092;3.458;2023-04-03T03:39:24;15.93;;;11.57;;
21833;SDS011;11079;51.092;3.458;2023-04-03T03:41:55;18.77;;;12.53;;
21833;SDS011;11079;51.092;3.458;2023-04-03T03:44:34;18.43;;;12.50;;
21833;SDS011;11079;51.092;3.458;2023-04-03T03:46:59;18.60;;;12.13;;
21833;SDS011;11079;51.092;3.458;2023-04-03T03:49:30;16.50;;;11.70;;
21833;SDS011;11079;51.092;3.458;2023-04-03T03:52:01;17.07;;;12.70;;
21833;SDS011;11079;51.092;3.458;2023-04-03T03:54:30;18.93;;;11.90;;
21833;SDS011;11079;51.092;3.458;2023-04-03T03:57:03;19.77;;;13.50;;
21833;SDS011;11079;51.092;3.458;2023-04-03T03:59:30;17.03;;;11.73;;
21833;SDS011;11079;51.092;3.458;2023-04-03T04:01:57;19.70;;;12.67;;
21833;SDS011;11079;51.092;3.458;2023-04-03T04:04:24;19.57;;;12.77;;
21833;SDS011;11079;51.092;3.458;2023-04-03T04:06:50;20.70;;;12.57;;
21833;SDS011;11079;51.092;3.458;2023-04-03T04:09:17;17.73;;;12.20;;
21833;SDS011;11079;51.092;3.458;2023-04-03T04:11:44;23.07;;;13.63;;
21833;SDS011;11079;51.092;3.458;2023-04-03T04:14:18;20.63;;;12.93;;
21833;SDS011;11079;51.092;3.458;2023-04-03T04:16:48;18.47;;;12.80;;
21833;SDS011;11079;51.092;3.458;2023-04-03T04:19:16;21.07;;;12.90;;
21833;SDS011;11079;51.092;3.458;2023-04-03T04:21:42;18.07;;;12.07;;
21833;SDS011;11079;51.092;3.458;2023-04-03T04:24:10;19.57;;;14.00;;
21833;SDS011;11079;51.092;3.458;2023-04-03T04:26:37;21.73;;;13.00;;
21833;SDS011;11079;51.092;3.458;2023-04-03T04:29:08;18.70;;;12.63;;
21833;SDS011;11079;51.092;3.458;2023-04-03T04:31:37;24.20;;;14.60;;
21833;SDS011;11079;51.092;3.458;2023-04-03T04:34:03;18.53;;;12.97;;
21833;SDS011;11079;51.092;3.458;2023-04-03T04:36:39;23.23;;;14.53;;
21833;SDS011;11079;51.092;3.458;2023-04-03T04:39:05;21.97;;;13.60;;
21833;SDS011;11079;51.092;3.458;2023-04-03T04:41:34;20.27;;;13.77;;
21833;SDS011;11079;51.092;3.458;2023-04-03T04:44:00;20.40;;;14.43;;
21833;SDS011;11079;51.092;3.458;2023-04-03T04:46:29;22.37;;;15.37;;
21833;SDS011;11079;51.092;3.458;2023-04-03T04:48:54;22.40;;;15.27;;
21833;SDS011;11079;51.092;3.458;2023-04-03T04:51:20;24.20;;;15.03;;
21833;SDS011;11079;51.092;3.458;2023-04-03T04:53:49;20.30;;;13.80;;
21833;SDS011;11079;51.092;3.458;2023-04-03T04:56:15;25.87;;;14.87;;
21833;SDS011;11079;51.092;3.458;2023-04-03T04:58:46;23.33;;;14.97;;
21833;SDS011;11079;51.092;3.458;2023-04-03T05:01:16;26.53;;;14.87;;
21833;SDS011;11079;51.092;3.458;2023-04-03T05:03:49;22.10;;;14.53;;
21833;SDS011;11079;51.092;3.458;2023-04-03T05:06:17;24.83;;;16.63;;
21833;SDS011;11079;51.092;3.458;2023-04-03T05:08:43;47.40;;;28.23;;
21833;SDS011;11079;51.092;3.458;2023-04-03T05:11:12;30.93;;;20.63;;
21833;SDS011;11079;51.092;3.458;2023-04-03T05:13:39;29.83;;;18.87;;
21833;SDS011;11079;51.092;3.458;2023-04-03T05:16:04;39.40;;;24.00;;
21833;SDS011;11079;51.092;3.458;2023-04-03T05:18:33;34.07;;;22.30;;
21833;SDS011;11079;51.092;3.458;2023-04-03T05:21:00;31.97;;;21.93;;
21833;SDS011;11079;51.092;3.458;2023-04-03T05:23:26;33.93;;;22.70;;
21833;SDS011;11079;51.092;3.458;2023-04-03T05:28:21;31.40;;;19.40;;
21833;SDS011;11079;51.092;3.458;2023-04-03T05:30:56;27.70;;;17.93;;
21833;SDS011;11079;51.092;3.458;2023-04-03T05:33:22;26.00;;;16.53;;
21833;SDS011;11079;51.092;3.458;2023-04-03T05:35:53;28.60;;;17.53;;
21833;SDS011;11079;51.092;3.458;2023-04-03T05:38:19;31.43;;;16.90;;
21833;SDS011;11079;51.092;3.458;2023-04-03T05:40:47;30.23;;;18.87;;
21833;SDS011;11079;51.092;3.458;2023-04-03T05:43:12;30.70;;;17.07;;
21833;SDS011;11079;51.092;3.458;2023-04-03T05:45:38;26.17;;;17.43;;
21833;SDS011;11079;51.092;3.458;2023-04-03T05:48:04;26.33;;;17.80;;
21833;SDS011;11079;51.092;3.458;2023-04-03T05:50:31;27.53;;;18.23;;
21833;SDS011;11079;51.092;3.458;2023-04-03T05:52:57;24.23;;;17.20;;
21833;SDS011;11079;51.092;3.458;2023-04-03T05:55:24;25.57;;;16.43;;
21833;SDS011;11079;51.092;3.458;2023-04-03T05:57:51;22.80;;;15.40;;
21833;SDS011;11079;51.092;3.458;2023-04-03T06:00:20;23.88;;;15.25;;
21833;SDS011;11079;51.092;3.458;2023-04-03T06:02:48;18.40;;;13.93;;
21833;SDS011;11079;51.092;3.458;2023-04-03T06:05:13;14.40;;;11.75;;
21833;SDS011;11079;51.092;3.458;2023-04-03T06:07:40;18.17;;;12.43;;
21833;SDS011;11079;51.092;3.458;2023-04-03T06:10:10;14.23;;;10.50;;
21833;SDS011;11079;51.092;3.458;2023-04-03T06:12:39;13.82;;;11.05;;
21833;SDS011;11079;51.092;3.458;2023-04-03T06:15:05;11.55;;;10.00;;
21833;SDS011;11079;51.092;3.458;2023-04-03T06:17:33;13.15;;;9.48;;
21833;SDS011;11079;51.092;3.458;2023-04-03T06:19:58;11.50;;;9.25;;
21833;SDS011;11079;51.092;3.458;2023-04-03T06:22:24;9.93;;;8.55;;
21833;SDS011;11079;51.092;3.458;2023-04-03T06:24:50;11.73;;;8.93;;
21833;SDS011;11079;51.092;3.458;2023-04-03T06:27:16;10.88;;;8.25;;
21833;SDS011;11079;51.092;3.458;2023-04-03T06:29:42;11.32;;;8.30;;
21833;SDS011;11079;51.092;3.458;2023-04-03T06:32:09;12.60;;;7.93;;
21833;SDS011;11079;51.092;3.458;2023-04-03T06:34:35;9.80;;;7.93;;
21833;SDS011;11079;51.092;3.458;2023-04-03T06:37:01;9.43;;;8.05;;
21833;SDS011;11079;51.092;3.458;2023-04-03T06:39:26;11.48;;;7.95;;
21833;SDS011;11079;51.092;3.458;2023-04-03T06:41:52;9.27;;;7.00;;
21833;SDS011;11079;51.092;3.458;2023-04-03T06:44:17;10.18;;;7.00;;
21833;SDS011;11079;51.092;3.458;2023-04-03T06:46:43;9.43;;;7.50;;
21833;SDS011;11079;51.092;3.458;2023-04-03T06:49:11;9.95;;;6.85;;
21833;SDS011;11079;51.092;3.458;2023-04-03T06:51:37;7.38;;;6.60;;
21833;SDS011;11079;51.092;3.458;2023-04-03T06:54:04;10.70;;;6.32;;
21833;SDS011;11079;51.092;3.458;2023-04-03T06:56:31;8.23;;;6.82;;
21833;SDS011;11079;51.092;3.458;2023-04-03T06:58:57;9.27;;;6.15;;
21833;SDS011;11079;51.092;3.458;2023-04-03T07:01:23;9.73;;;6.32;;
21833;SDS011;11079;51.092;3.458;2023-04-03T07:03:51;8.07;;;6.68;;
21833;SDS011;11079;51.092;3.458;2023-04-03T07:06:20;8.85;;;6.03;;
21833;SDS011;11079;51.092;3.458;2023-04-03T07:08:46;7.82;;;6.10;;
21833;SDS011;11079;51.092;3.458;2023-04-03T07:11:14;8.25;;;5.93;;
21833;SDS011;11079;51.092;3.458;2023-04-03T07:13:40;9.38;;;6.53;;
21833;SDS011;11079;51.092;3.458;2023-04-03T07:16:06;8.98;;;6.20;;
21833;SDS011;11079;51.092;3.458;2023-04-03T07:18:33;9.98;;;6.50;;
21833;SDS011;11079;51.092;3.458;2023-04-03T07:20:59;7.78;;;5.45;;
21833;SDS011;11079;51.092;3.458;2023-04-03T07:23:25;7.75;;;5.30;;
21833;SDS011;11079;51.092;3.458;2023-04-03T07:25:51;8.15;;;5.60;;
21833;SDS011;11079;51.092;3.458;2023-04-03T07:28:18;53.78;;;40.58;;
21833;SDS011;11079;51.092;3.458;2023-04-03T07:30:45;18.88;;;17.02;;
21833;SDS011;11079;51.092;3.458;2023-04-03T07:33:12;26.85;;;24.65;;
21833;SDS011;11079;51.092;3.458;2023-04-03T07:35:39;58.50;;;53.83;;
21833;SDS011;11079;51.092;3.458;2023-04-03T07:38:05;36.90;;;34.03;;
21833;SDS011;11079;51.092;3.458;2023-04-03T07:40:31;11.20;;;10.05;;
21833;SDS011;11079;51.092;3.458;2023-04-03T07:42:57;14.82;;;13.23;;
21833;SDS011;11079;51.092;3.458;2023-04-03T07:45:23;15.52;;;12.48;;
21833;SDS011;11079;51.092;3.458;2023-04-03T07:47:50;8.23;;;7.43;;
21833;SDS011;11079;51.092;3.458;2023-04-03T07:50:16;8.15;;;6.20;;
21833;SDS011;11079;51.092;3.458;2023-04-03T07:52:46;9.77;;;8.77;;
21833;SDS011;11079;51.092;3.458;2023-04-03T07:55:12;11.00;;;9.70;;
21833;SDS011;11079;51.092;3.458;2023-04-03T07:57:38;11.00;;;7.03;;
21833;SDS011;11079;51.092;3.458;2023-04-03T08:00:04;8.48;;;7.47;;
21833;SDS011;11079;51.092;3.458;2023-04-03T08:02:37;8.75;;;6.50;;
21833;SDS011;11079;51.092;3.458;2023-04-03T08:05:02;6.18;;;5.18;;
21833;SDS011;11079;51.092;3.458;2023-04-03T08:07:28;8.65;;;5.68;;
21833;SDS011;11079;51.092;3.458;2023-04-03T08:09:54;6.28;;;5.00;;
21833;SDS011;11079;51.092;3.458;2023-04-03T08:12:20;5.93;;;4.72;;
21833;SDS011;11079;51.092;3.458;2023-04-03T08:14:53;6.80;;;4.22;;
21833;SDS011;11079;51.092;3.458;2023-04-03T08:17:20;8.85;;;4.50;;
21833;SDS011;11079;51.092;3.458;2023-04-03T08:19:45;4.85;;;4.30;;
21833;SDS011;11079;51.092;3.458;2023-04-03T08:22:11;4.63;;;3.92;;
21833;SDS011;11079;51.092;3.458;2023-04-03T08:24:36;5.07;;;3.85;;
21833;SDS011;11079;51.092;3.458;2023-04-03T08:27:03;4.60;;;3.97;;
21833;SDS011;11079;51.092;3.458;2023-04-03T08:29:32;5.55;;;4.00;;
21833;SDS011;11079;51.092;3.458;2023-04-03T08:31:57;8.05;;;4.72;;
21833;SDS011;11079;51.092;3.458;2023-04-03T08:34:23;9.05;;;5.47;;
21833;SDS011;11079;51.092;3.458;2023-04-03T08:36:51;6.30;;;4.38;;
21833;SDS011;11079;51.092;3.458;2023-04-03T08:39:17;7.90;;;4.82;;
21833;SDS011;11079;51.092;3.458;2023-04-03T08:41:43;10.25;;;4.68;;
21833;SDS011;11079;51.092;3.458;2023-04-03T08:49:48;7.55;;;5.90;;
21833;SDS011;11079;51.092;3.458;2023-04-03T08:52:38;8.32;;;4.40;;
21833;SDS011;11079;51.092;3.458;2023-04-03T08:55:06;4.93;;;4.18;;
21833;SDS011;11079;51.092;3.458;2023-04-03T08:57:41;11.68;;;10.27;;
21833;SDS011;11079;51.092;3.458;2023-04-03T09:00:19;13.90;;;12.50;;
21833;SDS011;11079;51.092;3.458;2023-04-03T09:02:48;8.77;;;7.07;;
21833;SDS011;11079;51.092;3.458;2023-04-03T09:05:17;8.02;;;5.35;;
21833;SDS011;11079;51.092;3.458;2023-04-03T09:08:00;11.40;;;6.55;;
21833;SDS011;11079;51.092;3.458;2023-04-03T09:10:37;9.27;;;6.40;;
21833;SDS011;11079;51.092;3.458;2023-04-03T09:15:57;8.48;;;6.53;;
21833;SDS011;11079;51.092;3.458;2023-04-03T09:18:30;8.95;;;7.07;;
21833;SDS011;11079;51.092;3.458;2023-04-03T09:24:08;13.05;;;7.72;;
21833;SDS011;11079;51.092;3.458;2023-04-03T09:26:53;12.25;;;6.78;;
21833;SDS011;11079;51.092;3.458;2023-04-03T09:29:24;11.70;;;6.93;;
21833;SDS011;11079;51.092;3.458;2023-04-03T09:32:01;8.70;;;6.20;;
21833;SDS011;11079;51.092;3.458;2023-04-03T09:34:37;8.15;;;5.97;;
21833;SDS011;11079;51.092;3.458;2023-04-03T09:37:06;11.70;;;5.82;;
21833;SDS011;11079;51.092;3.458;2023-04-03T09:39:54;8.52;;;6.03;;
21833;SDS011;11079;51.092;3.458;2023-04-03T09:42:22;7.18;;;4.15;;
21833;SDS011;11079;51.092;3.458;2023-04-03T09:44:56;5.18;;;3.17;;
21833;SDS011;11079;51.092;3.458;2023-04-03T09:47:33;4.50;;;3.05;;
21833;SDS011;11079;51.092;3.458;2023-04-03T09:52:54;6.70;;;3.70;;
21833;SDS011;11079;51.092;3.458;2023-04-03T09:55:21;4.63;;;3.33;;
21833;SDS011;11079;51.092;3.458;2023-04-03T09:57:52;4.75;;;2.30;;
21833;SDS011;11079;51.092;3.458;2023-04-03T10:00:19;4.07;;;1.98;;
21833;SDS011;11079;51.092;3.458;2023-04-03T10:02:58;4.28;;;2.47;;
21833;SDS011;11079;51.092;3.458;2023-04-03T10:08:23;11.57;;;10.32;;
21833;SDS011;11079;51.092;3.458;2023-04-03T10:11:05;13.63;;;12.38;;
21833;SDS011;11079;51.092;3.458;2023-04-03T10:13:35;20.70;;;18.67;;
21833;SDS011;11079;51.092;3.458;2023-04-03T10:21:46;5.20;;;2.78;;
21833;SDS011;11079;51.092;3.458;2023-04-03T10:24:23;6.13;;;4.85;;
21833;SDS011;11079;51.092;3.458;2023-04-03T10:29:55;6.38;;;3.20;;
21833;SDS011;11079;51.092;3.458;2023-04-03T10:35:39;7.25;;;2.97;;
21833;SDS011;11079;51.092;3.458;2023-04-03T10:40:59;4.93;;;2.92;;
21833;SDS011;11079;51.092;3.458;2023-04-03T10:47:02;12.40;;;3.90;;
21833;SDS011;11079;51.092;3.458;2023-04-03T10:57:57;5.78;;;3.08;;
21833;SDS011;11079;51.092;3.458;2023-04-03T11:00:39;6.35;;;3.45;;
21833;SDS011;11079;51.092;3.458;2023-04-03T11:03:53;6.00;;;3.20;;
21833;SDS011;11079;51.092;3.458;2023-04-03T11:09:21;5.38;;;3.08;;
21833;SDS011;11079;51.092;3.458;2023-04-03T11:11:55;6.72;;;3.20;;
21833;SDS011;11079;51.092;3.458;2023-04-03T11:14:35;7.10;;;3.25;;
21833;SDS011;11079;51.092;3.458;2023-04-03T11:19:44;5.60;;;2.70;;
21833;SDS011;11079;51.092;3.458;2023-04-03T11:25:04;4.63;;;2.22;;
21833;SDS011;11079;51.092;3.458;2023-04-03T11:27:41;4.10;;;1.90;;
21833;SDS011;11079;51.092;3.458;2023-04-03T11:30:31;5.30;;;2.65;;
21833;SDS011;11079;51.092;3.458;2023-04-03T11:33:19;6.70;;;2.65;;
21833;SDS011;11079;51.092;3.458;2023-04-03T11:36:42;4.82;;;2.42;;
21833;SDS011;11079;51.092;3.458;2023-04-03T11:38:43;4.50;;;2.92;;
21833;SDS011;11079;51.092;3.458;2023-04-03T11:41:11;6.78;;;2.97;;
21833;SDS011;11079;51.092;3.458;2023-04-03T11:43:40;4.10;;;2.22;;
21833;SDS011;11079;51.092;3.458;2023-04-03T11:46:09;5.40;;;2.22;;
21833;SDS011;11079;51.092;3.458;2023-04-03T11:53:41;4.40;;;2.10;;
21833;SDS011;11079;51.092;3.458;2023-04-03T12:01:42;7.38;;;2.83;;
21833;SDS011;11079;51.092;3.458;2023-04-03T12:04:12;3.80;;;2.10;;
21833;SDS011;11079;51.092;3.458;2023-04-03T12:09:24;5.80;;;2.30;;
21833;SDS011;11079;51.092;3.458;2023-04-03T12:11:59;4.10;;;1.75;;
21833;SDS011;11079;51.092;3.458;2023-04-03T12:14:28;3.60;;;1.77;;
21833;SDS011;11079;51.092;3.458;2023-04-03T12:16:54;4.60;;;2.38;;
21833;SDS011;11079;51.092;3.458;2023-04-03T12:24:32;4.28;;;1.75;;
21833;SDS011;11079;51.092;3.458;2023-04-03T12:29:35;3.05;;;2.10;;
21833;SDS011;11079;51.092;3.458;2023-04-03T12:43:34;8.00;;;5.65;;
21833;SDS011;11079;51.092;3.458;2023-04-03T12:46:13;6.60;;;2.95;;
21833;SDS011;11079;51.092;3.458;2023-04-03T12:51:13;7.22;;;2.92;;
21833;SDS011;11079;51.092;3.458;2023-04-03T12:53:45;4.60;;;2.10;;
21833;SDS011;11079;51.092;3.458;2023-04-03T12:58:54;4.60;;;2.38;;
21833;SDS011;11079;51.092;3.458;2023-04-03T13:01:37;3.80;;;2.20;;
21833;SDS011;11079;51.092;3.458;2023-04-03T13:04:02;4.18;;;2.28;;
21833;SDS011;11079;51.092;3.458;2023-04-03T13:06:33;4.53;;;1.98;;
21833;SDS011;11079;51.092;3.458;2023-04-03T13:09:05;5.40;;;1.90;;
21833;SDS011;11079;51.092;3.458;2023-04-03T13:11:43;4.18;;;1.67;;
21833;SDS011;11079;51.092;3.458;2023-04-03T13:14:19;3.42;;;1.92;;
21833;SDS011;11079;51.092;3.458;2023-04-03T13:17:23;2.97;;;1.63;;
21833;SDS011;11079;51.092;3.458;2023-04-03T13:19:47;4.68;;;1.77;;
21833;SDS011;11079;51.092;3.458;2023-04-03T13:22:21;2.88;;;1.67;;
21833;SDS011;11079;51.092;3.458;2023-04-03T13:24:56;3.67;;;1.77;;
21833;SDS011;11079;51.092;3.458;2023-04-03T13:27:26;4.05;;;2.08;;
21833;SDS011;11079;51.092;3.458;2023-04-03T13:29:57;4.20;;;2.13;;
21833;SDS011;11079;51.092;3.458;2023-04-03T13:32:26;3.40;;;1.70;;
21833;SDS011;11079;51.092;3.458;2023-04-03T13:34:56;3.65;;;1.80;;
21833;SDS011;11079;51.092;3.458;2023-04-03T13:37:25;4.57;;;2.20;;
21833;SDS011;11079;51.092;3.458;2023-04-03T13:40:27;3.75;;;1.98;;
21833;SDS011;11079;51.092;3.458;2023-04-03T13:42:58;9.50;;;8.52;;
21833;SDS011;11079;51.092;3.458;2023-04-03T13:45:27;4.82;;;2.50;;
21833;SDS011;11079;51.092;3.458;2023-04-03T13:48:07;4.85;;;4.35;;
21833;SDS011;11079;51.092;3.458;2023-04-03T13:50:51;5.57;;;4.15;;
21833;SDS011;11079;51.092;3.458;2023-04-03T13:53:18;4.25;;;1.63;;
21833;SDS011;11079;51.092;3.458;2023-04-03T13:58:51;3.13;;;1.48;;
21833;SDS011;11079;51.092;3.458;2023-04-03T14:01:49;3.50;;;1.75;;
21833;SDS011;11079;51.092;3.458;2023-04-03T14:04:25;3.55;;;1.40;;
21833;SDS011;11079;51.092;3.458;2023-04-03T14:06:54;3.65;;;1.45;;
21833;SDS011;11079;51.092;3.458;2023-04-03T14:09:20;10.70;;;9.75;;
21833;SDS011;11079;51.092;3.458;2023-04-03T14:11:52;6.60;;;4.28;;
21833;SDS011;11079;51.092;3.458;2023-04-03T14:14:33;7.88;;;6.50;;
21833;SDS011;11079;51.092;3.458;2023-04-03T14:17:18;2.90;;;1.83;;
21833;SDS011;11079;51.092;3.458;2023-04-03T14:19:47;4.35;;;1.85;;
21833;SDS011;11079;51.092;3.458;2023-04-03T14:25:01;4.43;;;1.67;;
21833;SDS011;11079;51.092;3.458;2023-04-03T14:27:35;3.30;;;1.20;;
21833;SDS011;11079;51.092;3.458;2023-04-03T14:30:05;3.08;;;1.60;;
21833;SDS011;11079;51.092;3.458;2023-04-03T14:32:53;3.45;;;1.35;;
21833;SDS011;11079;51.092;3.458;2023-04-03T14:35:20;3.65;;;1.45;;
21833;SDS011;11079;51.092;3.458;2023-04-03T14:37:52;3.78;;;1.60;;
21833;SDS011;11079;51.092;3.458;2023-04-03T14:40:22;3.92;;;1.75;;
21833;SDS011;11079;51.092;3.458;2023-04-03T14:42:50;2.38;;;1.83;;
21833;SDS011;11079;51.092;3.458;2023-04-03T14:45:20;3.75;;;1.65;;
21833;SDS011;11079;51.092;3.458;2023-04-03T14:50:15;3.30;;;1.83;;
21833;SDS011;11079;51.092;3.458;2023-04-03T14:52:51;4.47;;;3.10;;
21833;SDS011;11079;51.092;3.458;2023-04-03T14:55:20;5.72;;;4.00;;
21833;SDS011;11079;51.092;3.458;2023-04-03T14:57:54;4.53;;;2.33;;
21833;SDS011;11079;51.092;3.458;2023-04-03T15:00:20;8.98;;;5.07;;
21833;SDS011;11079;51.092;3.458;2023-04-03T15:02:47;5.35;;;3.05;;
21833;SDS011;11079;51.092;3.458;2023-04-03T15:05:13;5.80;;;2.60;;
21833;SDS011;11079;51.092;3.458;2023-04-03T15:07:40;5.82;;;2.90;;
21833;SDS011;11079;51.092;3.458;2023-04-03T15:10:20;4.15;;;2.40;;
21833;SDS011;11079;51.092;3.458;2023-04-03T15:12:53;4.63;;;3.10;;
21833;SDS011;11079;51.092;3.458;2023-04-03T15:15:19;9.20;;;5.10;;
21833;SDS011;11079;51.092;3.458;2023-04-03T15:17:52;5.90;;;2.50;;
21833;SDS011;11079;51.092;3.458;2023-04-03T15:20:20;5.43;;;3.88;;
21833;SDS011;11079;51.092;3.458;2023-04-03T15:22:47;8.25;;;4.90;;
21833;SDS011;11079;51.092;3.458;2023-04-03T15:25:13;6.10;;;3.80;;
21833;SDS011;11079;51.092;3.458;2023-04-03T15:27:40;5.28;;;3.47;;
21833;SDS011;11079;51.092;3.458;2023-04-03T15:30:06;6.43;;;3.22;;
21833;SDS011;11079;51.092;3.458;2023-04-03T15:32:36;9.32;;;5.45;;
21833;SDS011;11079;51.092;3.458;2023-04-03T15:35:03;9.60;;;5.25;;
21833;SDS011;11079;51.092;3.458;2023-04-03T15:37:29;10.35;;;5.40;;
21833;SDS011;11079;51.092;3.458;2023-04-03T15:39:55;3.80;;;2.50;;
21833;SDS011;11079;51.092;3.458;2023-04-03T15:42:20;5.72;;;2.22;;
21833;SDS011;11079;51.092;3.458;2023-04-03T15:44:50;4.68;;;1.63;;
21833;SDS011;11079;51.092;3.458;2023-04-03T15:47:15;7.90;;;2.15;;
21833;SDS011;11079;51.092;3.458;2023-04-03T15:49:43;2.92;;;2.10;;
21833;SDS011;11079;51.092;3.458;2023-04-03T15:52:10;2.55;;;1.77;;
21833;SDS011;11079;51.092;3.458;2023-04-03T15:54:36;2.20;;;1.25;;
21833;SDS011;11079;51.092;3.458;2023-04-03T15:57:01;2.58;;;1.67;;
21833;SDS011;11079;51.092;3.458;2023-04-03T15:59:28;5.15;;;1.83;;
21833;SDS011;11079;51.092;3.458;2023-04-03T16:01:55;3.17;;;1.70;;
21833;SDS011;11079;51.092;3.458;2023-04-03T16:04:22;4.28;;;1.67;;
21833;SDS011;11079;51.092;3.458;2023-04-03T16:06:48;5.55;;;1.50;;
21833;SDS011;11079;51.092;3.458;2023-04-03T16:09:14;3.13;;;1.70;;
21833;SDS011;11079;51.092;3.458;2023-04-03T16:11:40;1.52;;;1.42;;
21833;SDS011;11079;51.092;3.458;2023-04-03T16:14:06;3.25;;;1.73;;
21833;SDS011;11079;51.092;3.458;2023-04-03T16:16:32;3.40;;;1.40;;
21833;SDS011;11079;51.092;3.458;2023-04-03T16:18:58;2.55;;;1.77;;
21833;SDS011;11079;51.092;3.458;2023-04-03T16:21:24;4.88;;;2.00;;
21833;SDS011;11079;51.092;3.458;2023-04-03T16:23:50;4.05;;;2.70;;
21833;SDS011;11079;51.092;3.458;2023-04-03T16:26:16;7.25;;;2.25;;
21833;SDS011;11079;51.092;3.458;2023-04-03T16:28:45;4.05;;;1.60;;
21833;SDS011;11079;51.092;3.458;2023-04-03T16:31:10;2.13;;;1.63;;
21833;SDS011;11079;51.092;3.458;2023-04-03T16:33:36;4.18;;;1.55;;
21833;SDS011;11079;51.092;3.458;2023-04-03T16:36:03;3.13;;;1.33;;
21833;SDS011;11079;51.092;3.458;2023-04-03T16:38:31;1.38;;;1.20;;
21833;SDS011;11079;51.092;3.458;2023-04-03T16:40:57;1.90;;;1.10;;
21833;SDS011;11079;51.092;3.458;2023-04-03T16:43:24;1.85;;;1.00;;
21833;SDS011;11079;51.092;3.458;2023-04-03T16:45:50;2.20;;;1.00;;